Time;durP1;ratioP1;P1;durP2;ratioP2;P2;SDS_P1;SDS_P2;PMS_P1;PMS_P2;Temp;Humidity;BMP_temperature;BMP_pressure;BME280_temperature;BME280_humidity;BME280_pressure;Samples;Min_cycle;Max_cycle;Signal;HPM_P1;HPM_P2
2021/09/10 00:01:27;;;;;;;;;;;19.40;99.90;;;;;;5029589;28;19909;-55
2021/09/10 00:03:53;;;;;;;;;;;19.50;99.90;;;;;;5033106;28;20355;-55
2021/09/10 00:06:18;;;;;;;;;;;19.40;99.90;;;;;;5029112;28;19970;-54
2021/09/10 00:08:44;;;;;;;;;;;19.50;99.90;;;;;;5032337;28;19974;-54
2021/09/10 00:11:09;;;;;;;;;;;19.40;99.90;;;;;;5030673;28;19909;-51
2021/09/10 00:13:35;;;;;;;;;;;19.40;99.90;;;;;;5030146;28;19962;-54
2021/09/10 00:16:00;;;;;;;;;;;19.40;99.90;;;;;;5031088;28;20366;-54
2021/09/10 00:18:26;;;;;;;;;;;19.40;99.90;;;;;;5028351;28;20350;-55
2021/09/10 00:20:51;;;;;;;;;;;19.40;99.90;;;;;;5031238;28;19970;-52
2021/09/10 00:23:17;;;;;;;;;;;19.40;99.90;;;;;;5030304;28;19956;-53
2021/09/10 00:25:43;;;;;;;;;;;19.40;99.90;;;;;;5030785;28;19920;-55
2021/09/10 00:28:08;;;;;;;;;;;19.30;99.90;;;;;;5029870;28;19920;-54
2021/09/10 00:30:33;;;;;;;;;;;19.30;99.90;;;;;;5028371;28;19909;-51
2021/09/10 00:32:59;;;;;;;;;;;19.30;99.90;;;;;;5027386;28;19916;-53
2021/09/10 00:35:24;;;;;;;;;;;19.30;99.90;;;;;;5030970;28;19909;-55
2021/09/10 00:37:50;;;;;;;;;;;19.30;99.90;;;;;;5030717;28;19917;-52
2021/09/10 00:40:15;;;;;;;;;;;19.30;99.90;;;;;;5031701;28;19913;-54
2021/09/10 00:42:41;;;;;;;;;;;19.30;99.90;;;;;;5029167;28;19909;-50
2021/09/10 00:45:06;;;;;;;;;;;19.30;99.90;;;;;;5033043;28;19909;-49
2021/09/10 00:47:32;;;;;;;;;;;19.30;99.90;;;;;;5028868;28;19956;-54
2021/09/10 00:49:58;;;;;;;;;;;19.40;99.90;;;;;;5030831;28;19909;-51
2021/09/10 00:52:23;;;;;;;;;;;19.30;99.90;;;;;;5028721;28;19912;-54
2021/09/10 00:54:49;;;;;;;;;;;19.30;99.90;;;;;;5029791;28;19917;-51
2021/09/10 00:57:14;;;;;;;;;;;19.30;99.90;;;;;;5028942;28;19916;-55
2021/09/10 00:59:40;;;;;;;;;;;19.30;99.90;;;;;;5030985;28;19913;-51
2021/09/10 01:02:06;;;;;;;;;;;19.30;99.90;;;;;;5028634;28;20346;-52
2021/09/10 01:04:31;;;;;;;;;;;19.30;99.90;;;;;;5029647;28;19913;-51
2021/09/10 01:06:57;;;;;;;;;;;19.30;99.90;;;;;;5027491;28;19983;-54
2021/09/10 01:09:23;;;;;;;;;;;19.30;99.90;;;;;;5030559;28;19905;-54
2021/09/10 01:11:50;;;;;;;;;;;19.30;99.90;;;;;;5026891;28;19959;-55
2021/09/10 01:14:16;;;;;;;;;;;19.30;99.90;;;;;;5029809;28;20012;-55
2021/09/10 01:16:42;;;;;;;;;;;19.20;99.90;;;;;;5029762;28;20566;-54
2021/09/10 01:19:08;;;;;;;;;;;19.20;99.90;;;;;;5027643;28;19916;-51
2021/09/10 01:21:33;;;;;;;;;;;19.20;99.90;;;;;;5029791;28;19909;-55
2021/09/10 01:23:59;;;;;;;;;;;19.20;99.90;;;;;;5028336;28;19909;-53
2021/09/10 01:26:24;;;;;;;;;;;19.20;99.90;;;;;;5029178;28;19905;-55
2021/09/10 01:28:50;;;;;;;;;;;19.20;99.90;;;;;;5028244;28;19909;-56
2021/09/10 01:31:15;;;;;;;;;;;19.10;99.90;;;;;;5028668;28;19960;-52
2021/09/10 01:33:41;;;;;;;;;;;19.10;99.90;;;;;;5026312;28;20048;-55
2021/09/10 01:36:08;;;;;;;;;;;19.10;99.90;;;;;;5030367;28;19959;-54
2021/09/10 01:38:34;;;;;;;;;;;19.10;99.90;;;;;;5028558;28;19909;-50
2021/09/10 01:40:59;;;;;;;;;;;19.10;99.90;;;;;;5029727;28;19909;-51
2021/09/10 01:43:25;;;;;;;;;;;19.10;99.90;;;;;;5029438;28;19920;-53
2021/09/10 01:45:50;;;;;;;;;;;19.00;99.90;;;;;;5026259;28;19920;-53
2021/09/10 01:48:16;;;;;;;;;;;19.10;99.90;;;;;;5028626;28;19947;-53
2021/09/10 01:50:41;;;;;;;;;;;19.00;99.90;;;;;;5030887;28;19917;-55
2021/09/10 01:53:07;;;;;;;;;;;19.00;99.90;;;;;;5029620;28;19971;-56
2021/09/10 01:55:32;;;;;;;;;;;19.00;99.90;;;;;;5027694;28;19948;-56
2021/09/10 01:57:58;;;;;;;;;;;18.90;99.90;;;;;;5029226;28;19909;-53
2021/09/10 02:00:24;;;;;;;;;;;19.00;99.90;;;;;;5029395;28;19974;-53
2021/09/10 02:02:49;;;;;;;;;;;19.00;99.90;;;;;;5029932;28;19920;-53
2021/09/10 02:05:15;;;;;;;;;;;19.00;99.90;;;;;;5029609;28;19952;-54
2021/09/10 02:07:41;;;;;;;;;;;19.10;99.90;;;;;;5026846;28;19908;-51
2021/09/10 02:10:07;;;;;;;;;;;19.10;99.90;;;;;;5028887;28;20789;-56
2021/09/10 02:12:33;;;;;;;;;;;19.00;99.90;;;;;;5027656;28;19917;-53
2021/09/10 02:14:58;;;;;;;;;;;19.00;99.90;;;;;;5029534;28;19975;-55
2021/09/10 02:17:24;;;;;;;;;;;18.90;99.90;;;;;;5028729;28;19917;-52
2021/09/10 02:19:49;;;;;;;;;;;18.90;99.90;;;;;;5028561;28;19931;-53
2021/09/10 02:22:15;;;;;;;;;;;18.90;99.90;;;;;;5030454;28;19909;-54
2021/09/10 02:24:40;;;;;;;;;;;18.90;99.90;;;;;;5028820;28;19915;-53
2021/09/10 02:27:06;;;;;;;;;;;18.90;99.90;;;;;;5028892;28;19979;-52
2021/09/10 02:29:31;;;;;;;;;;;18.80;99.90;;;;;;5028290;28;19967;-52
2021/09/10 02:31:57;;;;;;;;;;;18.80;99.90;;;;;;5029992;28;19913;-53
2021/09/10 02:34:22;;;;;;;;;;;18.80;99.90;;;;;;5026297;28;19920;-59
2021/09/10 02:36:48;;;;;;;;;;;18.80;99.90;;;;;;5028453;28;20003;-54
2021/09/10 02:39:13;;;;;;;;;;;18.80;99.90;;;;;;5027318;28;19909;-51
2021/09/10 02:41:39;;;;;;;;;;;18.80;99.90;;;;;;5028083;28;19909;-54
2021/09/10 02:44:05;;;;;;;;;;;18.80;99.90;;;;;;5030428;28;20012;-58
2021/09/10 02:46:31;;;;;;;;;;;18.70;99.90;;;;;;5026133;28;19959;-52
2021/09/10 02:48:56;;;;;;;;;;;18.70;99.90;;;;;;5028298;28;19912;-52
2021/09/10 02:51:22;;;;;;;;;;;18.70;99.90;;;;;;5025047;28;19960;-53
2021/09/10 02:53:47;;;;;;;;;;;18.70;99.90;;;;;;5028230;28;19969;-54
2021/09/10 02:56:13;;;;;;;;;;;18.70;99.90;;;;;;5028402;28;19916;-50
2021/09/10 02:58:38;;;;;;;;;;;18.70;99.90;;;;;;5029498;28;20268;-53
2021/09/10 03:01:04;;;;;;;;;;;18.70;99.90;;;;;;5028526;28;20657;-53
2021/09/10 03:03:29;;;;;;;;;;;18.70;99.90;;;;;;5027267;28;19913;-54
2021/09/10 03:05:55;;;;;;;;;;;18.70;99.90;;;;;;5029484;28;19936;-56
2021/09/10 03:08:21;;;;;;;;;;;18.70;99.90;;;;;;5032876;28;19909;-54
2021/09/10 03:10:46;;;;;;;;;;;18.80;99.90;;;;;;5032359;28;20595;-50
2021/09/10 03:13:12;;;;;;;;;;;18.80;99.90;;;;;;5031515;28;20481;-54
2021/09/10 03:15:37;;;;;;;;;;;18.70;99.90;;;;;;5030683;28;19963;-51
2021/09/10 03:18:02;;;;;;;;;;;18.70;99.90;;;;;;5033016;28;19909;-56
2021/09/10 03:20:28;;;;;;;;;;;18.70;99.90;;;;;;5009481;28;20000;-50
2021/09/10 03:22:54;;;;;;;;;;;18.70;99.90;;;;;;5032404;28;19917;-49
2021/09/10 03:25:19;;;;;;;;;;;18.70;99.90;;;;;;5030899;28;19967;-56
2021/09/10 03:27:45;;;;;;;;;;;18.60;99.90;;;;;;5032109;28;20000;-54
2021/09/10 03:30:11;;;;;;;;;;;18.60;99.90;;;;;;5031123;28;19996;-56
2021/09/10 03:32:36;;;;;;;;;;;18.60;99.90;;;;;;5028867;28;20636;-55
2021/09/10 03:35:02;;;;;;;;;;;18.60;99.90;;;;;;5031373;28;20395;-52
2021/09/10 03:37:27;;;;;;;;;;;18.60;99.90;;;;;;5025924;28;20279;-53
2021/09/10 03:39:53;;;;;;;;;;;18.60;99.90;;;;;;5031297;28;19913;-53
2021/09/10 03:42:18;;;;;;;;;;;18.60;99.90;;;;;;5031459;28;19915;-51
2021/09/10 03:44:44;;;;;;;;;;;18.60;99.90;;;;;;5011952;28;20399;-53
2021/09/10 03:47:09;;;;;;;;;;;18.60;99.90;;;;;;5031944;28;19913;-54
2021/09/10 03:49:36;;;;;;;;;;;18.60;99.90;;;;;;5032310;28;19905;-59
2021/09/10 03:52:01;;;;;;;;;;;18.60;99.90;;;;;;5032516;28;19917;-55
2021/09/10 03:54:27;;;;;;;;;;;18.60;99.90;;;;;;5029567;28;20329;-55
2021/09/10 03:56:52;;;;;;;;;;;18.60;99.90;;;;;;5033276;28;19909;-56
2021/09/10 03:59:18;;;;;;;;;;;18.50;99.90;;;;;;5030418;28;19913;-59
2021/09/10 04:01:43;;;;;;;;;;;18.50;99.90;;;;;;5029449;28;19913;-53
2021/09/10 04:04:09;;;;;;;;;;;18.50;99.90;;;;;;5026433;28;19909;-55
2021/09/10 04:06:34;;;;;;;;;;;18.40;99.90;;;;;;5029003;28;19968;-52
2021/09/10 04:09:00;;;;;;;;;;;18.40;99.90;;;;;;5031491;28;19947;-54
2021/09/10 04:11:25;;;;;;;;;;;18.40;99.90;;;;;;5030514;28;19917;-59
2021/09/10 04:13:51;;;;;;;;;;;18.40;99.90;;;;;;5031341;28;19928;-53
2021/09/10 04:16:16;;;;;;;;;;;18.30;99.90;;;;;;5026515;28;19912;-58
2021/09/10 04:18:42;;;;;;;;;;;18.30;99.90;;;;;;5023262;28;19913;-55
2021/09/10 04:21:07;;;;;;;;;;;18.30;99.90;;;;;;5021752;28;19959;-55
2021/09/10 04:23:32;;;;;;;;;;;18.30;99.90;;;;;;5020769;28;19909;-54
2021/09/10 04:25:58;;;;;;;;;;;18.30;99.90;;;;;;5023491;28;19913;-54
2021/09/10 04:28:23;;;;;;;;;;;18.20;99.90;;;;;;5005109;28;19917;-54
2021/09/10 04:30:49;;;;;;;;;;;18.20;99.90;;;;;;5023393;28;19912;-52
2021/09/10 04:33:14;;;;;;;;;;;18.20;99.90;;;;;;5022699;28;20364;-48
2021/09/10 04:35:40;;;;;;;;;;;18.10;99.90;;;;;;5023630;28;20871;-53
2021/09/10 04:38:05;;;;;;;;;;;18.10;99.90;;;;;;5022017;28;20915;-56
2021/09/10 04:40:30;;;;;;;;;;;18.10;99.90;;;;;;5022416;28;19913;-50
2021/09/10 04:42:56;;;;;;;;;;;18.20;99.90;;;;;;5031054;28;20036;-54
2021/09/10 04:45:22;;;;;;;;;;;18.20;99.90;;;;;;5030594;28;19913;-50
2021/09/10 04:47:48;;;;;;;;;;;18.10;99.90;;;;;;5028915;28;20358;-59
2021/09/10 04:50:14;;;;;;;;;;;18.10;99.90;;;;;;5030949;28;19952;-54
2021/09/10 04:52:40;;;;;;;;;;;18.10;99.90;;;;;;5031892;28;19915;-52
2021/09/10 04:55:06;;;;;;;;;;;18.10;99.90;;;;;;5033733;28;19908;-54
2021/09/10 04:57:32;;;;;;;;;;;18.00;99.90;;;;;;5034479;28;19909;-55
2021/09/10 04:59:58;;;;;;;;;;;18.00;99.90;;;;;;5031568;28;19923;-50
2021/09/10 05:02:24;;;;;;;;;;;18.00;99.90;;;;;;5032220;28;20435;-59
2021/09/10 05:04:50;;;;;;;;;;;18.00;99.90;;;;;;5032874;28;19916;-53
2021/09/10 05:07:16;;;;;;;;;;;18.00;99.90;;;;;;5032102;28;19928;-49
2021/09/10 05:09:41;;;;;;;;;;;18.00;99.90;;;;;;5032465;28;19966;-53
2021/09/10 05:12:06;;;;;;;;;;;18.00;99.90;;;;;;5031857;28;19920;-48
2021/09/10 05:14:32;;;;;;;;;;;18.00;99.90;;;;;;5013242;28;19944;-53
2021/09/10 05:16:57;;;;;;;;;;;17.90;99.90;;;;;;5019597;28;20322;-50
2021/09/10 05:19:23;;;;;;;;;;;18.00;99.90;;;;;;5030861;28;20693;-50
2021/09/10 05:21:48;;;;;;;;;;;18.00;99.90;;;;;;5030500;28;19920;-50
2021/09/10 05:24:14;;;;;;;;;;;18.00;99.90;;;;;;5030972;28;19905;-54
2021/09/10 05:26:39;;;;;;;;;;;18.00;99.90;;;;;;5012313;28;19909;-48
2021/09/10 05:29:05;;;;;;;;;;;18.00;99.90;;;;;;5020230;28;20007;-52
2021/09/10 05:31:30;;;;;;;;;;;18.10;99.90;;;;;;5009776;28;19916;-51
2021/09/10 05:33:55;;;;;;;;;;;18.00;99.90;;;;;;5010400;28;19932;-50
2021/09/10 05:36:21;;;;;;;;;;;18.00;99.90;;;;;;5011868;28;19996;-52
2021/09/10 05:38:47;;;;;;;;;;;18.00;99.90;;;;;;5030692;28;19913;-54
2021/09/10 05:41:12;;;;;;;;;;;18.10;99.90;;;;;;5029774;28;20390;-56
2021/09/10 05:43:38;;;;;;;;;;;18.10;99.90;;;;;;5030543;28;20550;-53
2021/09/10 05:46:03;;;;;;;;;;;18.10;99.90;;;;;;5029479;28;19905;-53
2021/09/10 05:48:29;;;;;;;;;;;18.10;99.90;;;;;;5027645;28;20036;-53
2021/09/10 05:50:54;;;;;;;;;;;18.10;99.90;;;;;;5031020;28;19909;-49
2021/09/10 05:53:19;;;;;;;;;;;18.10;99.90;;;;;;5029601;28;19917;-52
2021/09/10 05:55:45;;;;;;;;;;;18.20;99.90;;;;;;5029624;28;19909;-58
2021/09/10 05:58:12;;;;;;;;;;;18.30;99.90;;;;;;5027774;28;19909;-55
2021/09/10 06:00:39;;;;;;;;;;;18.30;99.90;;;;;;5027703;28;19920;-51
2021/09/10 06:03:05;;;;;;;;;;;18.30;99.90;;;;;;5009254;28;19909;-52
2021/09/10 06:05:30;;;;;;;;;;;18.30;99.90;;;;;;5028421;28;19996;-51
2021/09/10 06:07:56;;;;;;;;;;;18.40;99.90;;;;;;5029855;28;19909;-59
2021/09/10 06:10:21;;;;;;;;;;;18.40;99.90;;;;;;5010595;28;19913;-52
2021/09/10 06:12:47;;;;;;;;;;;18.40;99.90;;;;;;5029853;28;20312;-54
2021/09/10 06:15:13;;;;;;;;;;;18.40;99.90;;;;;;5029894;28;19917;-55
2021/09/10 06:17:39;;;;;;;;;;;18.50;99.90;;;;;;5029206;28;19948;-55
2021/09/10 06:20:05;;;;;;;;;;;18.60;99.90;;;;;;5029657;28;19909;-55
2021/09/10 06:22:34;;;;;;;;;;;18.60;99.90;;;;;;5030027;28;19955;-55
2021/09/10 06:25:02;;;;;;;;;;;18.70;99.90;;;;;;5028431;28;19909;-49
2021/09/10 06:27:27;;;;;;;;;;;18.80;99.90;;;;;;5029625;28;19909;-52
2021/09/10 06:29:53;;;;;;;;;;;18.80;99.90;;;;;;5024806;28;20233;-53
2021/09/10 06:32:18;;;;;;;;;;;18.90;99.90;;;;;;5021807;28;20255;-52
2021/09/10 06:34:44;;;;;;;;;;;19.00;99.90;;;;;;5028840;28;20420;-50
2021/09/10 06:37:09;;;;;;;;;;;18.90;99.90;;;;;;5030104;28;20329;-54
2021/09/10 06:39:35;;;;;;;;;;;18.90;99.90;;;;;;5029022;28;20483;-53
2021/09/10 06:42:00;;;;;;;;;;;19.00;99.90;;;;;;5024352;28;20374;-54
2021/09/10 06:44:26;;;;;;;;;;;19.10;99.90;;;;;;5027269;28;19952;-51
2021/09/10 06:46:51;;;;;;;;;;;19.10;99.90;;;;;;5029861;28;19905;-53
2021/09/10 06:49:17;;;;;;;;;;;19.20;99.90;;;;;;5028626;28;19913;-57
2021/09/10 06:51:42;;;;;;;;;;;19.20;99.90;;;;;;5038527;28;19913;-54
2021/09/10 06:54:08;;;;;;;;;;;19.30;99.90;;;;;;5038599;28;19916;-56
2021/09/10 06:56:33;;;;;;;;;;;19.30;99.90;;;;;;5028644;28;19909;-53
2021/09/10 06:58:59;;;;;;;;;;;19.40;99.90;;;;;;5026675;28;19921;-53
2021/09/10 07:01:24;;;;;;;;;;;19.40;99.90;;;;;;5030531;28;20283;-52
2021/09/10 07:03:50;;;;;;;;;;;19.50;99.90;;;;;;5036619;28;19944;-54
2021/09/10 07:06:15;;;;;;;;;;;19.60;99.90;;;;;;5038027;28;19909;-53
2021/09/10 07:08:41;;;;;;;;;;;19.60;99.90;;;;;;5031605;28;20282;-52
2021/09/10 07:11:06;;;;;;;;;;;19.70;99.90;;;;;;5039982;28;20272;-53
2021/09/10 07:13:32;;;;;;;;;;;19.80;99.90;;;;;;5039127;28;19920;-50
2021/09/10 07:15:57;;;;;;;;;;;19.90;99.90;;;;;;5029505;28;19974;-56
2021/09/10 07:18:23;;;;;;;;;;;20.10;99.90;;;;;;5029416;28;20004;-52
2021/09/10 07:20:48;;;;;;;;;;;20.10;99.90;;;;;;5021363;28;19913;-53
2021/09/10 07:23:14;;;;;;;;;;;20.20;99.90;;;;;;5036124;28;20007;-51
2021/09/10 07:25:39;;;;;;;;;;;20.30;99.90;;;;;;5033750;28;19909;-54
2021/09/10 07:28:05;;;;;;;;;;;20.40;99.90;;;;;;5026702;28;19905;-50
2021/09/10 07:30:31;;;;;;;;;;;20.40;99.90;;;;;;5029079;28;20363;-52
2021/09/10 07:32:56;;;;;;;;;;;20.50;99.90;;;;;;5029204;28;19905;-50
2021/09/10 07:35:22;;;;;;;;;;;20.70;99.90;;;;;;5028319;28;19920;-58
2021/09/10 07:37:48;;;;;;;;;;;20.80;99.90;;;;;;5028469;28;19917;-52
2021/09/10 07:40:14;;;;;;;;;;;20.90;99.90;;;;;;5028853;28;19905;-52
2021/09/10 07:42:40;;;;;;;;;;;21.10;99.90;;;;;;5034322;28;19913;-49
2021/09/10 07:45:06;;;;;;;;;;;21.20;99.90;;;;;;5035587;28;20351;-52
2021/09/10 07:47:32;;;;;;;;;;;21.20;99.90;;;;;;5037466;28;20368;-50
2021/09/10 07:49:57;;;;;;;;;;;21.30;99.90;;;;;;5037313;28;19924;-54
2021/09/10 07:52:23;;;;;;;;;;;21.40;99.90;;;;;;5041588;28;19999;-52
2021/09/10 07:54:48;;;;;;;;;;;21.40;99.90;;;;;;5038496;28;20372;-54
2021/09/10 07:57:14;;;;;;;;;;;21.60;99.90;;;;;;5040325;28;20279;-52
2021/09/10 07:59:39;;;;;;;;;;;21.70;99.90;;;;;;5035548;28;20039;-53
2021/09/10 08:02:04;;;;;;;;;;;21.80;99.90;;;;;;5040798;28;19913;-53
2021/09/10 08:04:30;;;;;;;;;;;21.90;99.90;;;;;;5040148;28;19959;-53
2021/09/10 08:06:55;;;;;;;;;;;22.10;99.90;;;;;;5039234;28;20051;-50
2021/09/10 08:09:21;;;;;;;;;;;22.20;99.90;;;;;;5038359;28;19920;-50
2021/09/10 08:11:46;;;;;;;;;;;22.40;99.90;;;;;;5035054;28;19917;-55
2021/09/10 08:14:12;;;;;;;;;;;22.60;99.90;;;;;;5029759;28;19921;-53
2021/09/10 08:16:37;;;;;;;;;;;22.80;99.90;;;;;;5030500;28;19968;-54
2021/09/10 08:19:05;;;;;;;;;;;23.20;99.90;;;;;;5031555;28;20003;-55
2021/09/10 08:21:30;;;;;;;;;;;23.50;99.90;;;;;;5029979;28;19916;-54
2021/09/10 08:23:56;;;;;;;;;;;23.60;99.90;;;;;;5031596;28;20283;-52
2021/09/10 08:26:21;;;;;;;;;;;23.60;99.90;;;;;;5026930;28;19916;-58
2021/09/10 08:28:47;;;;;;;;;;;23.80;99.90;;;;;;5030817;28;19916;-51
2021/09/10 08:31:12;;;;;;;;;;;23.90;99.90;;;;;;5030147;28;19971;-55
2021/09/10 08:33:38;;;;;;;;;;;23.90;99.90;;;;;;5030790;28;19921;-53
2021/09/10 08:36:04;;;;;;;;;;;24.00;99.90;;;;;;5043993;28;19909;-48
2021/09/10 08:38:29;;;;;;;;;;;24.20;99.90;;;;;;5014271;28;19940;-52
2021/09/10 08:40:56;;;;;;;;;;;24.40;99.90;;;;;;5030714;28;19909;-52
2021/09/10 08:43:23;;;;;;;;;;;24.90;99.90;;;;;;5031386;28;19925;-54
2021/09/10 08:45:48;;;;;;;;;;;25.60;99.90;;;;;;5030083;28;19917;-55
2021/09/10 08:48:16;;;;;;;;;;;26.20;99.90;;;;;;5028187;28;19915;-51
2021/09/10 08:50:41;;;;;;;;;;;26.40;99.90;;;;;;5023488;28;19940;-54
2021/09/10 08:53:08;;;;;;;;;;;26.70;99.90;;;;;;5004748;28;20489;-52
2021/09/10 08:55:34;;;;;;;;;;;27.10;99.90;;;;;;5030782;28;20060;-59
2021/09/10 08:57:59;;;;;;;;;;;27.50;99.90;;;;;;5030256;28;19992;-52
2021/09/10 09:00:26;;;;;;;;;;;27.80;99.90;;;;;;5031167;28;19909;-53
2021/09/10 09:03:01;;;;;;;;;;;27.80;99.90;;;;;;5032906;28;20838;-50
2021/09/10 09:05:27;;;;;;;;;;;27.70;99.90;;;;;;5030023;28;20087;-56
2021/09/10 09:08:03;;;;;;;;;;;27.50;99.90;;;;;;5030891;28;19920;-55
2021/09/10 09:10:47;;;;;;;;;;;27.40;99.90;;;;;;5012066;28;19909;-54
2021/09/10 09:13:13;;;;;;;;;;;26.80;99.90;;;;;;5032439;28;20269;-56
2021/09/10 09:15:38;;;;;;;;;;;26.80;99.90;;;;;;5030225;28;19912;-51
2021/09/10 09:18:04;;;;;;;;;;;26.70;99.90;;;;;;5029983;28;20279;-58
2021/09/10 09:20:29;;;;;;;;;;;27.10;99.90;;;;;;5028824;28;19913;-52
2021/09/10 09:22:56;;;;;;;;;;;27.20;99.90;;;;;;5030651;28;19916;-52
2021/09/10 09:25:28;;;;;;;;;;;26.80;99.90;;;;;;5011493;28;19909;-53
2021/09/10 09:27:54;;;;;;;;;;;26.60;99.90;;;;;;5030628;28;19913;-54
2021/09/10 09:30:36;;;;;;;;;;;26.70;99.90;;;;;;5027709;28;19978;-52
2021/09/10 09:33:02;;;;;;;;;;;27.10;99.90;;;;;;5027587;28;19956;-53
2021/09/10 09:35:31;;;;;;;;;;;27.70;99.90;;;;;;5029512;28;20426;-56
2021/09/10 09:37:57;;;;;;;;;;;28.50;99.90;;;;;;5029600;28;20036;-55
2021/09/10 09:40:30;;;;;;;;;;;29.40;99.90;;;;;;5029408;28;20104;-52
2021/09/10 09:42:56;;;;;;;;;;;30.00;99.90;;;;;;5029594;28;19909;-53
2021/09/10 09:45:24;;;;;;;;;;;30.80;99.90;;;;;;5028661;28;19916;-53
2021/09/10 09:47:50;;;;;;;;;;;31.10;99.90;;;;;;5027814;28;20427;-54
2021/09/10 09:50:17;;;;;;;;;;;32.00;99.90;;;;;;5035406;28;20007;-54
2021/09/10 09:52:47;;;;;;;;;;;32.60;99.90;;;;;;5040792;28;20294;-52
2021/09/10 09:55:13;;;;;;;;;;;33.00;99.90;;;;;;5012009;28;19912;-56
2021/09/10 09:57:39;;;;;;;;;;;33.70;99.90;;;;;;5029529;28;19915;-51
2021/09/10 10:00:05;;;;;;;;;;;34.30;99.90;;;;;;5028820;28;19960;-54
2021/09/10 10:02:31;;;;;;;;;;;34.80;99.90;;;;;;5036189;28;19909;-53
2021/09/10 10:04:57;;;;;;;;;;;35.10;99.90;;;;;;5034214;28;19909;-54
2021/09/10 10:07:23;;;;;;;;;;;35.50;99.90;;;;;;5029288;28;19939;-55
2021/09/10 10:09:49;;;;;;;;;;;35.60;99.90;;;;;;5026989;28;19913;-56
2021/09/10 10:12:15;;;;;;;;;;;35.60;99.90;;;;;;5024707;28;19924;-55
2021/09/10 10:14:41;;;;;;;;;;;36.20;99.90;;;;;;5027293;28;20032;-54
2021/09/10 10:17:25;;;;;;;;;;;36.90;99.90;;;;;;5027329;28;20071;-58
2021/09/10 10:19:51;;;;;;;;;;;37.00;99.90;;;;;;5026600;28;19909;-51
2021/09/10 10:22:30;;;;;;;;;;;37.80;99.90;;;;;;5027354;28;20000;-53
2021/09/10 10:24:56;;;;;;;;;;;37.60;99.90;;;;;;5027516;28;19967;-58
2021/09/10 10:27:26;;;;;;;;;;;37.30;99.90;;;;;;5026667;28;19913;-56
2021/09/10 10:29:52;;;;;;;;;;;37.60;99.90;;;;;;5026483;28;19912;-55
2021/09/10 10:32:28;;;;;;;;;;;38.20;99.30;;;;;;5024813;28;19912;-55
2021/09/10 10:35:11;;;;;;;;;;;38.30;99.60;;;;;;5024875;28;19916;-53
2021/09/10 10:37:40;;;;;;;;;;;37.80;99.70;;;;;;5026546;28;19913;-58
2021/09/10 10:40:24;;;;;;;;;;;37.70;99.30;;;;;;5028542;28;19905;-53
2021/09/10 10:42:50;;;;;;;;;;;37.60;98.70;;;;;;5025521;28;20032;-53
2021/09/10 10:45:16;;;;;;;;;;;38.60;99.90;;;;;;5028131;28;19967;-53
2021/09/10 10:47:41;;;;;;;;;;;38.70;97.80;;;;;;5028379;28;19912;-53
2021/09/10 10:50:25;;;;;;;;;;;38.90;96.40;;;;;;5027017;28;19982;-51
2021/09/10 10:52:55;;;;;;;;;;;39.30;96.10;;;;;;5027024;28;19916;-55
2021/09/10 10:55:23;;;;;;;;;;;39.30;95.20;;;;;;5025756;28;20007;-53
2021/09/10 10:57:53;;;;;;;;;;;39.30;95.20;;;;;;5023909;28;19916;-55
2021/09/10 11:00:28;;;;;;;;;;;39.40;94.20;;;;;;5028482;28;19948;-53
2021/09/10 11:03:12;;;;;;;;;;;40.10;93.60;;;;;;5027641;28;19912;-54
2021/09/10 11:05:37;;;;;;;;;;;40.30;94.00;;;;;;5017467;28;19935;-54
2021/09/10 11:08:03;;;;;;;;;;;40.20;93.70;;;;;;5027975;28;19912;-54
2021/09/10 11:10:28;;;;;;;;;;;39.90;93.40;;;;;;5028756;28;20386;-54
2021/09/10 11:12:54;;;;;;;;;;;40.10;92.20;;;;;;5029765;28;19913;-54
2021/09/10 11:15:20;;;;;;;;;;;39.70;92.80;;;;;;5017121;28;19924;-55
2021/09/10 11:18:05;;;;;;;;;;;39.70;92.30;;;;;;5016554;28;19905;-53
2021/09/10 11:20:35;;;;;;;;;;;39.20;92.50;;;;;;5029089;28;19911;-52
2021/09/10 11:23:05;;;;;;;;;;;39.30;92.60;;;;;;5029040;28;19909;-55
2021/09/10 11:25:31;;;;;;;;;;;38.90;91.80;;;;;;5028186;28;19912;-54
2021/09/10 11:27:57;;;;;;;;;;;39.50;91.50;;;;;;5030530;28;19909;-55
2021/09/10 11:30:22;;;;;;;;;;;39.30;91.50;;;;;;5032554;28;19909;-53
2021/09/10 11:32:56;;;;;;;;;;;39.60;91.20;;;;;;5031482;28;19957;-54
2021/09/10 11:35:23;;;;;;;;;;;40.00;90.80;;;;;;5028602;28;19921;-58
2021/09/10 11:38:03;;;;;;;;;;;40.50;88.60;;;;;;5031101;28;19962;-58
2021/09/10 11:40:28;;;;;;;;;;;40.50;89.20;;;;;;5031793;28;20288;-58
2021/09/10 11:43:07;;;;;;;;;;;40.10;88.50;;;;;;5032529;28;19913;-59
2021/09/10 11:45:35;;;;;;;;;;;39.10;89.00;;;;;;5032493;28;19920;-59
2021/09/10 11:48:01;;;;;;;;;;;37.60;90.40;;;;;;5031674;28;19909;-59
2021/09/10 11:50:42;;;;;;;;;;;36.70;90.50;;;;;;5030701;28;19909;-59
2021/09/10 11:53:15;;;;;;;;;;;36.00;90.90;;;;;;5031732;28;20295;-58
2021/09/10 11:55:49;;;;;;;;;;;35.70;91.30;;;;;;5028920;28;20379;-60
2021/09/10 11:58:15;;;;;;;;;;;35.20;91.60;;;;;;5034304;28;20403;-57
2021/09/10 12:00:40;;;;;;;;;;;34.30;91.00;;;;;;5031455;28;19909;-58
2021/09/10 12:03:07;;;;;;;;;;;33.70;91.50;;;;;;5032395;28;19921;-59
2021/09/10 12:05:32;;;;;;;;;;;33.30;95.70;;;;;;5031023;28;19913;-56
2021/09/10 12:07:58;;;;;;;;;;;32.60;99.90;;;;;;5032296;28;19963;-55
2021/09/10 12:10:33;;;;;;;;;;;30.30;99.90;;;;;;5031140;28;20004;-52
2021/09/10 12:13:12;;;;;;;;;;;28.30;1.00;;;;;;5030480;28;19980;-53
2021/09/10 12:15:39;;;;;;;;;;;26.80;1.00;;;;;;5027658;28;20622;-52
2021/09/10 12:18:13;;;;;;;;;;;25.90;1.00;;;;;;5031614;28;20342;-55
2021/09/10 12:20:39;;;;;;;;;;;25.50;17.90;;;;;;5031382;28;20502;-52
2021/09/10 12:23:05;;;;;;;;;;;25.30;99.90;;;;;;5032033;28;19912;-53
2021/09/10 12:25:35;;;;;;;;;;;25.30;99.90;;;;;;5024239;28;20323;-55
2021/09/10 12:28:07;;;;;;;;;;;25.30;99.90;;;;;;5025946;28;20003;-56
2021/09/10 12:30:34;;;;;;;;;;;25.30;99.90;;;;;;5031282;28;19996;-56
2021/09/10 12:32:59;;;;;;;;;;;25.20;99.90;;;;;;5038974;28;19908;-55
2021/09/10 12:35:26;;;;;;;;;;;25.30;99.90;;;;;;5024958;28;19915;-56
2021/09/10 12:37:58;;;;;;;;;;;25.40;99.90;;;;;;5030974;28;19917;-54
2021/09/10 12:40:24;;;;;;;;;;;25.60;99.90;;;;;;5032868;28;20029;-57
2021/09/10 12:42:50;;;;;;;;;;;25.70;99.90;;;;;;5029117;28;19909;-57
2021/09/10 12:45:16;;;;;;;;;;;25.90;99.90;;;;;;5032888;28;20370;-57
2021/09/10 12:47:42;;;;;;;;;;;26.10;99.90;;;;;;5028455;28;19917;-55
2021/09/10 12:50:08;;;;;;;;;;;26.40;99.90;;;;;;5031611;28;19920;-56
2021/09/10 12:52:34;;;;;;;;;;;26.60;99.90;;;;;;5030755;28;19909;-56
2021/09/10 12:55:02;;;;;;;;;;;26.70;99.90;;;;;;5030219;28;19919;-56
2021/09/10 12:57:28;;;;;;;;;;;26.80;99.90;;;;;;5032197;28;19924;-57
2021/09/10 12:59:53;;;;;;;;;;;27.00;99.90;;;;;;5030187;28;19913;-55
2021/09/10 13:02:19;;;;;;;;;;;27.10;99.90;;;;;;5026719;28;20250;-55
2021/09/10 13:04:44;;;;;;;;;;;27.20;99.90;;;;;;5021913;28;20502;-54
2021/09/10 13:07:10;;;;;;;;;;;27.20;99.90;;;;;;5021048;28;19948;-56
2021/09/10 13:09:35;;;;;;;;;;;27.40;99.90;;;;;;5022752;28;20581;-53
2021/09/10 13:12:01;;;;;;;;;;;27.40;99.90;;;;;;5017716;28;19912;-55
2021/09/10 13:14:26;;;;;;;;;;;27.40;99.90;;;;;;5019369;28;20328;-58
2021/09/10 13:16:52;;;;;;;;;;;27.40;99.90;;;;;;5021934;28;19905;-57
2021/09/10 13:19:17;;;;;;;;;;;27.50;99.90;;;;;;5021941;28;19971;-57
2021/09/10 13:21:43;;;;;;;;;;;27.60;99.90;;;;;;5021106;28;19928;-54
2021/09/10 13:24:08;;;;;;;;;;;27.90;99.90;;;;;;5020228;28;19920;-56
2021/09/10 13:26:34;;;;;;;;;;;28.10;99.90;;;;;;5020938;28;20708;-56
2021/09/10 13:28:59;;;;;;;;;;;28.70;99.90;;;;;;5020724;28;19919;-53
2021/09/10 13:31:25;;;;;;;;;;;29.40;99.80;;;;;;5020420;28;20031;-53
2021/09/10 13:33:50;;;;;;;;;;;30.10;95.80;;;;;;5021151;28;19917;-55
2021/09/10 13:36:15;;;;;;;;;;;31.10;95.60;;;;;;5022038;28;19917;-56
2021/09/10 13:38:41;;;;;;;;;;;32.00;92.60;;;;;;5020909;28;19959;-57
2021/09/10 13:41:06;;;;;;;;;;;32.90;87.00;;;;;;5021043;28;19919;-55
2021/09/10 13:43:32;;;;;;;;;;;33.20;76.10;;;;;;5020103;28;19913;-57
2021/09/10 13:45:57;;;;;;;;;;;33.80;71.10;;;;;;5006596;28;19916;-56
2021/09/10 13:48:23;;;;;;;;;;;33.90;68.80;;;;;;5020378;28;19905;-58
2021/09/10 13:50:48;;;;;;;;;;;33.90;67.10;;;;;;5021562;28;19958;-56
2021/09/10 13:53:14;;;;;;;;;;;33.30;69.10;;;;;;5019387;28;19916;-57
2021/09/10 13:55:40;;;;;;;;;;;32.20;71.80;;;;;;5021565;28;19913;-58
2021/09/10 13:58:05;;;;;;;;;;;31.50;77.10;;;;;;5019128;28;19905;-58
2021/09/10 14:00:31;;;;;;;;;;;30.80;79.60;;;;;;5021801;28;19913;-57
2021/09/10 14:02:56;;;;;;;;;;;30.10;77.80;;;;;;5019601;28;20018;-56
2021/09/10 14:05:22;;;;;;;;;;;29.70;82.80;;;;;;5021498;28;19924;-56
2021/09/10 14:07:47;;;;;;;;;;;29.40;87.30;;;;;;5015882;28;19913;-58
2021/09/10 14:10:13;;;;;;;;;;;29.10;86.90;;;;;;5020836;28;19913;-58
2021/09/10 14:12:38;;;;;;;;;;;28.80;85.20;;;;;;5017988;28;20708;-58